Terminal Aerodrome Forecast
Issued by NWS

Home | Current Version | Previous Version | Text Only | Print | Product List | Glossary On
Versions: 1 2 3 4 5 6 7 8 9 10 11 12 13 14 15
000
FTUS43 KICT 040520
TAFCNU
TAF
KCNU 040520Z 0406/0506 16007KT P6SM SCT100 BKN250
     FM041500 22011KT P6SM SCT040 BKN120
     FM041600 22012KT P6SM VCTS SCT025 BKN050CB
     FM041900 20012KT P6SM BKN060
     FM050200 16010KT P6SM VCTS BKN060CB=

USA.gov is the U.S. government's official web portal to all federal, state and local government web resources and services.